Fjordprinsessen — LJVE — position and weather

sailwx.info

Track history (hours):
 
Tides and Currents Weather Stations Pressure Air Temp Water Temp Dewpoint Dewpoint Depression Visibility Wind Speed Wind Dir Waves Ship Positions

Fjordprinsessen

Last reported at 2014-Sep-01 07:29 UTC. Time now 2014-Sep-01 07:58 UTC.
Position N 69°39' E 018°57'.

Length 30 m; draft 2.5 m.

Type: High speed craft. MMSI: 259604000.

Date/timePositionNaut miles runAvg speedWind from/ knotsBaromVisibWave heightAir tempDewpointWater temp
2014-Sep-01 07:29N 69°39' E 018°57'0 0.0
2014-Sep-01 06:32N 69°39' E 018°57'0 0.0
2014-Sep-01 05:29N 69°39' E 018°57'0 0.0
2014-Sep-01 04:29N 69°39' E 018°57'0 0.0
2014-Sep-01 03:28N 69°39' E 018°57'0 0.0
2014-Sep-01 02:31N 69°39' E 018°57'0 0.0
2014-Sep-01 01:31N 69°39' E 018°57'0 0.0
2014-Sep-01 00:22N 69°39' E 018°57'0 0.0
2014-Aug-31 23:28N 69°39' E 018°57'0 0.0
2014-Aug-31 22:31N 69°39' E 018°57'0 0.0
2014-Aug-31 21:31N 69°39' E 018°57'0 0.0
2014-Aug-31 20:28N 69°39' E 018°57'0 0.0
2014-Aug-31 19:31N 69°39' E 018°57'0 0.0
2014-Aug-31 18:31N 69°39' E 018°57'0 0.0
2014-Aug-31 17:28N 69°39' E 018°57'0 0.0
2014-Aug-31 16:28N 69°39' E 018°57'0 0.0
2014-Aug-31 15:34N 69°39' E 018°57'0 0.0
2014-Aug-31 14:33N 69°39' E 018°57'0 0.0
2014-Aug-31 13:27N 69°39' E 018°57'0 0.0
2014-Aug-31 12:33N 69°39' E 018°57'0 0.0
2014-Aug-31 11:33N 69°39' E 018°57'0 0.0
2014-Aug-31 10:33N 69°39' E 018°57'0 0.0
2014-Aug-31 09:33N 69°39' E 018°57'0 0.0
2014-Aug-31 08:33N 69°39' E 018°57'0 0.0
2014-Aug-31 07:33N 69°39' E 018°57'0 0.0
2014-Aug-31 06:33N 69°39' E 018°57'0 0.0
2014-Aug-31 05:33N 69°39' E 018°57'0 0.1
2014-Aug-31 04:33N 69°39' E 018°57'0 0.0
2014-Aug-31 03:33N 69°39' E 018°57'0 0.0
2014-Aug-31 02:33N 69°39' E 018°57'0 0.0
2014-Aug-31 01:30N 69°39' E 018°57'0 0.0
2014-Aug-31 00:33N 69°39' E 018°57'0 0.0
2014-Aug-30 23:33N 69°39' E 018°57'0 0.0
2014-Aug-30 22:33N 69°39' E 018°57'0 0.0
2014-Aug-30 21:33N 69°39' E 018°57'0 0.0
2014-Aug-30 20:33N 69°39' E 018°57'0 0.0
2014-Aug-30 19:33N 69°39' E 018°57'0 0.0
2014-Aug-30 18:33N 69°39' E 018°57'0 0.0
2014-Aug-30 17:33N 69°39' E 018°57'0 0.0
2014-Aug-30 16:33N 69°39' E 018°57'0 0.0
2014-Aug-30 15:33N 69°39' E 018°57'0 0.0
2014-Aug-30 14:33N 69°39' E 018°57'0 0.0
2014-Aug-30 13:33N 69°39' E 018°57'0 0.0
2014-Aug-30 12:33N 69°39' E 018°57'0 0.0
2014-Aug-30 11:33N 69°39' E 018°57'0 0.0
2014-Aug-30 10:33N 69°39' E 018°57'0 0.0
2014-Aug-30 09:33N 69°39' E 018°57'0 0.0
2014-Aug-30 08:33N 69°39' E 018°57'0 0.0
2014-Aug-30 07:33N 69°39' E 018°57'0 0.0
2014-Aug-30 06:33N 69°39' E 018°57'0 0.0
2014-Aug-30 05:33N 69°39' E 018°57'0 0.0
2014-Aug-30 04:33N 69°39' E 018°57'0 0.0
2014-Aug-30 03:33N 69°39' E 018°57'0 0.0
2014-Aug-30 02:33N 69°39' E 018°57'0 0.0
2014-Aug-30 01:33N 69°39' E 018°57'0 0.0
2014-Aug-30 00:33N 69°39' E 018°57'0 0.0
2014-Aug-29 23:33N 69°39' E 018°57'0 0.0
2014-Aug-29 22:32N 69°39' E 018°57'0 0.0
2014-Aug-29 21:32N 69°39' E 018°57'6 1.3
2014-Aug-29 16:25N 69°45' E 019°06'11 4.8
2014-Aug-29 14:12N 69°35' E 018°51'4 6.7
2014-Aug-29 13:33N 69°39' E 018°57'0 0.0
2014-Aug-29 12:33N 69°39' E 018°57'0 0.0
2014-Aug-29 11:33N 69°39' E 018°57'0 0.0
2014-Aug-29 10:30N 69°39' E 018°57'0 0.0
2014-Aug-29 09:33N 69°39' E 018°57'0 0.0
2014-Aug-29 08:33N 69°39' E 018°57'0 0.0
2014-Aug-29 07:32N 69°39' E 018°57'7 3.5
2014-Aug-29 05:27N 69°33' E 018°44'7 7.6
2014-Aug-29 04:30N 69°39' E 018°57'0 0.0
2014-Aug-29 03:30N 69°39' E 018°57'0 0.0
2014-Aug-29 02:33N 69°39' E 018°57'0 0.0
2014-Aug-29 01:33N 69°39' E 018°57'0 0.0
2014-Aug-29 00:27N 69°39' E 018°57'0 0.0
2014-Aug-28 23:33N 69°39' E 018°57'0 0.0
2014-Aug-28 22:33N 69°39' E 018°57'0 0.0
2014-Aug-28 21:33N 69°39' E 018°57'0 0.0
2014-Aug-28 20:33N 69°39' E 018°57'0 0.0
2014-Aug-28 19:33N 69°39' E 018°57'0 0.0
2014-Aug-28 18:30N 69°39' E 018°57'7 1.6
2014-Aug-28 14:17N 69°45' E 019°07'7 9.2
2014-Aug-28 13:32N 69°39' E 018°57'0 0.0
2014-Aug-28 12:29N 69°39' E 018°57'0 0.0
2014-Aug-28 11:29N 69°39' E 018°57'0 0.0
2014-Aug-28 10:32N 69°39' E 018°57'0 0.0
2014-Aug-28 09:29N 69°39' E 018°57'0 0.0
2014-Aug-28 08:29N 69°39' E 018°57'4 0.2
2014-Aug-27 17:34N 69°42' E 019°03'4 3.5
2014-Aug-27 16:33N 69°39' E 018°57'7 3.3
2014-Aug-27 14:16N 69°33' E 018°43'710.2
2014-Aug-27 13:33N 69°39' E 018°57'0 0.0
2014-Aug-27 12:33N 69°39' E 018°57'0 0.0
2014-Aug-27 11:33N 69°39' E 018°57'0 0.0
2014-Aug-27 10:33N 69°39' E 018°57'0 0.0
2014-Aug-27 09:33N 69°39' E 018°57'0 0.0
2014-Aug-27 08:33N 69°39' E 018°57'0 0.0
2014-Aug-27 07:33N 69°39' E 018°57'7 3.5
2014-Aug-27 05:27N 69°33' E 018°44'7 8.0
2014-Aug-27 04:33N 69°39' E 018°57'0 0.0
2014-Aug-27 03:33N 69°39' E 018°57'0 0.0
2014-Aug-27 02:28N 69°39' E 018°57'0 0.0
2014-Aug-27 01:31N 69°39' E 018°57'0 0.0
2014-Aug-27 00:31N 69°39' E 018°57'0 0.0
2014-Aug-26 23:28N 69°39' E 018°57'0 0.0
2014-Aug-26 22:31N 69°39' E 018°57'0 0.0
2014-Aug-26 21:28N 69°39' E 018°57'0 0.0
2014-Aug-26 20:31N 69°39' E 018°57'0 0.0
2014-Aug-26 19:31N 69°39' E 018°57'0 0.0
2014-Aug-26 18:33N 69°39' E 018°57'7 1.5
2014-Aug-26 14:16N 69°45' E 019°06'7 8.5
2014-Aug-26 13:30N 69°39' E 018°57'0 0.0
2014-Aug-26 12:22N 69°39' E 018°57'0 0.0
2014-Aug-26 11:31N 69°39' E 018°57'0 0.0
2014-Aug-26 10:31N 69°39' E 018°57'0 0.0
2014-Aug-26 09:31N 69°39' E 018°57'0 0.0
2014-Aug-26 08:31N 69°39' E 018°57'5 0.3
2014-Aug-25 17:33N 69°43' E 019°04'5 4.2
2014-Aug-25 16:28N 69°39' E 018°57'7 3.2
2014-Aug-25 14:15N 69°33' E 018°44'7 9.3
2014-Aug-25 13:30N 69°39' E 018°57'0 0.0
2014-Aug-25 12:30N 69°39' E 018°57'0 0.0
2014-Aug-25 11:30N 69°39' E 018°57'0 0.0
2014-Aug-25 10:21N 69°39' E 018°57'0 0.0
2014-Aug-25 09:33N 69°39' E 018°57'0 0.0
2014-Aug-25 08:27N 69°39' E 018°57'0 0.0
2014-Aug-25 07:30N 69°39' E 018°57'7 3.6
2014-Aug-25 05:27N 69°33' E 018°44'7 8.0
2014-Aug-25 04:32N 69°39' E 018°57'0 0.0
2014-Aug-25 03:26N 69°39' E 018°57'0 0.0
2014-Aug-25 02:32N 69°39' E 018°57'0 0.0
2014-Aug-25 01:32N 69°39' E 018°57'0 0.0
2014-Aug-25 00:32N 69°39' E 018°57'0 0.0
2014-Aug-24 23:32N 69°39' E 018°57'0 0.0
2014-Aug-24 22:26N 69°39' E 018°57'0 0.0
2014-Aug-24 21:32N 69°39' E 018°57'0 0.0
2014-Aug-24 20:32N 69°39' E 018°57'5 2.6
2014-Aug-24 18:34N 69°35' E 018°49'5 0.8
2014-Aug-24 12:33N 69°39' E 018°57'0 0.0
2014-Aug-24 11:33N 69°39' E 018°57'0 0.0
2014-Aug-24 10:33N 69°39' E 018°57'0 0.0
2014-Aug-24 09:33N 69°39' E 018°57'0 0.0
2014-Aug-24 08:30N 69°39' E 018°57'0 0.0
2014-Aug-24 07:33N 69°39' E 018°57'0 0.0
2014-Aug-24 06:30N 69°39' E 018°57'0 0.0
2014-Aug-24 05:33N 69°39' E 018°57'0 0.0
2014-Aug-24 04:33N 69°39' E 018°57'0 0.0
2014-Aug-24 03:33N 69°39' E 018°57'0 0.0
2014-Aug-24 02:33N 69°39' E 018°57'0 0.0
2014-Aug-24 01:33N 69°39' E 018°57'0 0.0
2014-Aug-24 00:30N 69°39' E 018°57'0 0.0
2014-Aug-23 23:33N 69°39' E 018°57'0 0.0
2014-Aug-23 22:30N 69°39' E 018°57'0 0.0
2014-Aug-23 21:30N 69°39' E 018°57'0 0.0
2014-Aug-23 20:30N 69°39' E 018°57'0 0.0
2014-Aug-23 19:33N 69°39' E 018°57'0 0.0
2014-Aug-23 03:30N 69°39' E 018°57'0 0.0
2014-Aug-23 02:33N 69°39' E 018°57'0 0.0
2014-Aug-23 01:33N 69°39' E 018°57'0 0.0
2014-Aug-23 00:32N 69°39' E 018°57'0 0.0
2014-Aug-22 23:32N 69°39' E 018°57'0 0.0
2014-Aug-22 22:32N 69°39' E 018°57'0 0.0
2014-Aug-22 21:32N 69°39' E 018°57'7 1.4
2014-Aug-22 16:27N 69°45' E 019°07'14 6.7
2014-Aug-22 14:16N 69°33' E 018°43'7 9.7
2014-Aug-22 13:31N 69°39' E 018°57'0 0.0
2014-Aug-22 12:28N 69°39' E 018°57'0 0.0
2014-Aug-22 11:31N 69°39' E 018°57'0 0.0
2014-Aug-22 10:31N 69°39' E 018°57'0 0.0
2014-Aug-22 09:31N 69°39' E 018°57'0 0.0
2014-Aug-22 08:25N 69°39' E 018°57'0 0.0
2014-Aug-22 07:31N 69°39' E 018°57'  
Track history (hours):
 
Tides and Currents Weather Stations Pressure Air Temp Water Temp Dewpoint Dewpoint Depression Visibility Wind Speed Wind Dir Waves Ship Positions

Fjordprinsessen

Last reported at 2014-Sep-01 07:29 UTC. Time now 2014-Sep-01 07:58 UTC.
Position N 69°39' E 018°57'.

Length 30 m; draft 2.5 m.

Type: High speed craft. MMSI: 259604000.

Date/timePositionNaut miles runAvg speedWind from/ knotsBaromVisibWave heightAir tempDewpointWater temp
2014-Sep-01 07:29N 69°39' E 018°57'0 0.0
2014-Sep-01 06:32N 69°39' E 018°57'0 0.0
2014-Sep-01 05:29N 69°39' E 018°57'0 0.0
2014-Sep-01 04:29N 69°39' E 018°57'0 0.0
2014-Sep-01 03:28N 69°39' E 018°57'0 0.0
2014-Sep-01 02:31N 69°39' E 018°57'0 0.0
2014-Sep-01 01:31N 69°39' E 018°57'0 0.0
2014-Sep-01 00:22N 69°39' E 018°57'0 0.0
2014-Aug-31 23:28N 69°39' E 018°57'0 0.0
2014-Aug-31 22:31N 69°39' E 018°57'0 0.0
2014-Aug-31 21:31N 69°39' E 018°57'0 0.0
2014-Aug-31 20:28N 69°39' E 018°57'0 0.0
2014-Aug-31 19:31N 69°39' E 018°57'0 0.0
2014-Aug-31 18:31N 69°39' E 018°57'0 0.0
2014-Aug-31 17:28N 69°39' E 018°57'0 0.0
2014-Aug-31 16:28N 69°39' E 018°57'0 0.0
2014-Aug-31 15:34N 69°39' E 018°57'0 0.0
2014-Aug-31 14:33N 69°39' E 018°57'0 0.0
2014-Aug-31 13:27N 69°39' E 018°57'0 0.0
2014-Aug-31 12:33N 69°39' E 018°57'0 0.0
2014-Aug-31 11:33N 69°39' E 018°57'0 0.0
2014-Aug-31 10:33N 69°39' E 018°57'0 0.0
2014-Aug-31 09:33N 69°39' E 018°57'0 0.0
2014-Aug-31 08:33N 69°39' E 018°57'0 0.0
2014-Aug-31 07:33N 69°39' E 018°57'0 0.0
2014-Aug-31 06:33N 69°39' E 018°57'0 0.0
2014-Aug-31 05:33N 69°39' E 018°57'0 0.1
2014-Aug-31 04:33N 69°39' E 018°57'0 0.0
2014-Aug-31 03:33N 69°39' E 018°57'0 0.0
2014-Aug-31 02:33N 69°39' E 018°57'0 0.0
2014-Aug-31 01:30N 69°39' E 018°57'0 0.0
2014-Aug-31 00:33N 69°39' E 018°57'0 0.0
2014-Aug-30 23:33N 69°39' E 018°57'0 0.0
2014-Aug-30 22:33N 69°39' E 018°57'0 0.0
2014-Aug-30 21:33N 69°39' E 018°57'0 0.0
2014-Aug-30 20:33N 69°39' E 018°57'0 0.0
2014-Aug-30 19:33N 69°39' E 018°57'0 0.0
2014-Aug-30 18:33N 69°39' E 018°57'0 0.0
2014-Aug-30 17:33N 69°39' E 018°57'0 0.0
2014-Aug-30 16:33N 69°39' E 018°57'0 0.0
2014-Aug-30 15:33N 69°39' E 018°57'0 0.0
2014-Aug-30 14:33N 69°39' E 018°57'0 0.0
2014-Aug-30 13:33N 69°39' E 018°57'0 0.0
2014-Aug-30 12:33N 69°39' E 018°57'0 0.0
2014-Aug-30 11:33N 69°39' E 018°57'0 0.0
2014-Aug-30 10:33N 69°39' E 018°57'0 0.0
2014-Aug-30 09:33N 69°39' E 018°57'0 0.0
2014-Aug-30 08:33N 69°39' E 018°57'0 0.0
2014-Aug-30 07:33N 69°39' E 018°57'0 0.0
2014-Aug-30 06:33N 69°39' E 018°57'0 0.0
2014-Aug-30 05:33N 69°39' E 018°57'0 0.0
2014-Aug-30 04:33N 69°39' E 018°57'0 0.0
2014-Aug-30 03:33N 69°39' E 018°57'0 0.0
2014-Aug-30 02:33N 69°39' E 018°57'0 0.0
2014-Aug-30 01:33N 69°39' E 018°57'0 0.0
2014-Aug-30 00:33N 69°39' E 018°57'0 0.0
2014-Aug-29 23:33N 69°39' E 018°57'0 0.0
2014-Aug-29 22:32N 69°39' E 018°57'0 0.0
2014-Aug-29 21:32N 69°39' E 018°57'6 1.3
2014-Aug-29 16:25N 69°45' E 019°06'11 4.8
2014-Aug-29 14:12N 69°35' E 018°51'4 6.7
2014-Aug-29 13:33N 69°39' E 018°57'0 0.0
2014-Aug-29 12:33N 69°39' E 018°57'0 0.0
2014-Aug-29 11:33N 69°39' E 018°57'0 0.0
2014-Aug-29 10:30N 69°39' E 018°57'0 0.0
2014-Aug-29 09:33N 69°39' E 018°57'0 0.0
2014-Aug-29 08:33N 69°39' E 018°57'0 0.0
2014-Aug-29 07:32N 69°39' E 018°57'7 3.5
2014-Aug-29 05:27N 69°33' E 018°44'7 7.6
2014-Aug-29 04:30N 69°39' E 018°57'0 0.0
2014-Aug-29 03:30N 69°39' E 018°57'0 0.0
2014-Aug-29 02:33N 69°39' E 018°57'0 0.0
2014-Aug-29 01:33N 69°39' E 018°57'0 0.0
2014-Aug-29 00:27N 69°39' E 018°57'0 0.0
2014-Aug-28 23:33N 69°39' E 018°57'0 0.0
2014-Aug-28 22:33N 69°39' E 018°57'0 0.0
2014-Aug-28 21:33N 69°39' E 018°57'0 0.0
2014-Aug-28 20:33N 69°39' E 018°57'0 0.0
2014-Aug-28 19:33N 69°39' E 018°57'0 0.0
2014-Aug-28 18:30N 69°39' E 018°57'7 1.6
2014-Aug-28 14:17N 69°45' E 019°07'7 9.2
2014-Aug-28 13:32N 69°39' E 018°57'0 0.0
2014-Aug-28 12:29N 69°39' E 018°57'0 0.0
2014-Aug-28 11:29N 69°39' E 018°57'0 0.0
2014-Aug-28 10:32N 69°39' E 018°57'0 0.0
2014-Aug-28 09:29N 69°39' E 018°57'0 0.0
2014-Aug-28 08:29N 69°39' E 018°57'4 0.2
2014-Aug-27 17:34N 69°42' E 019°03'4 3.5
2014-Aug-27 16:33N 69°39' E 018°57'7 3.3
2014-Aug-27 14:16N 69°33' E 018°43'710.2
2014-Aug-27 13:33N 69°39' E 018°57'0 0.0
2014-Aug-27 12:33N 69°39' E 018°57'0 0.0
2014-Aug-27 11:33N 69°39' E 018°57'0 0.0
2014-Aug-27 10:33N 69°39' E 018°57'0 0.0
2014-Aug-27 09:33N 69°39' E 018°57'0 0.0
2014-Aug-27 08:33N 69°39' E 018°57'0 0.0
2014-Aug-27 07:33N 69°39' E 018°57'7 3.5
2014-Aug-27 05:27N 69°33' E 018°44'7 8.0
2014-Aug-27 04:33N 69°39' E 018°57'0 0.0
2014-Aug-27 03:33N 69°39' E 018°57'0 0.0
2014-Aug-27 02:28N 69°39' E 018°57'0 0.0
2014-Aug-27 01:31N 69°39' E 018°57'0 0.0
2014-Aug-27 00:31N 69°39' E 018°57'0 0.0
2014-Aug-26 23:28N 69°39' E 018°57'0 0.0
2014-Aug-26 22:31N 69°39' E 018°57'0 0.0
2014-Aug-26 21:28N 69°39' E 018°57'0 0.0
2014-Aug-26 20:31N 69°39' E 018°57'0 0.0
2014-Aug-26 19:31N 69°39' E 018°57'0 0.0
2014-Aug-26 18:33N 69°39' E 018°57'7 1.5
2014-Aug-26 14:16N 69°45' E 019°06'7 8.5
2014-Aug-26 13:30N 69°39' E 018°57'0 0.0
2014-Aug-26 12:22N 69°39' E 018°57'0 0.0
2014-Aug-26 11:31N 69°39' E 018°57'0 0.0
2014-Aug-26 10:31N 69°39' E 018°57'0 0.0
2014-Aug-26 09:31N 69°39' E 018°57'0 0.0
2014-Aug-26 08:31N 69°39' E 018°57'5 0.3
2014-Aug-25 17:33N 69°43' E 019°04'5 4.2
2014-Aug-25 16:28N 69°39' E 018°57'7 3.2
2014-Aug-25 14:15N 69°33' E 018°44'7 9.3
2014-Aug-25 13:30N 69°39' E 018°57'0 0.0
2014-Aug-25 12:30N 69°39' E 018°57'0 0.0
2014-Aug-25 11:30N 69°39' E 018°57'0 0.0
2014-Aug-25 10:21N 69°39' E 018°57'0 0.0
2014-Aug-25 09:33N 69°39' E 018°57'0 0.0
2014-Aug-25 08:27N 69°39' E 018°57'0 0.0
2014-Aug-25 07:30N 69°39' E 018°57'7 3.6
2014-Aug-25 05:27N 69°33' E 018°44'7 8.0
2014-Aug-25 04:32N 69°39' E 018°57'0 0.0
2014-Aug-25 03:26N 69°39' E 018°57'0 0.0
2014-Aug-25 02:32N 69°39' E 018°57'0 0.0
2014-Aug-25 01:32N 69°39' E 018°57'0 0.0
2014-Aug-25 00:32N 69°39' E 018°57'0 0.0
2014-Aug-24 23:32N 69°39' E 018°57'0 0.0
2014-Aug-24 22:26N 69°39' E 018°57'0 0.0
2014-Aug-24 21:32N 69°39' E 018°57'0 0.0
2014-Aug-24 20:32N 69°39' E 018°57'5 2.6
2014-Aug-24 18:34N 69°35' E 018°49'5 0.8
2014-Aug-24 12:33N 69°39' E 018°57'0 0.0
2014-Aug-24 11:33N 69°39' E 018°57'0 0.0
2014-Aug-24 10:33N 69°39' E 018°57'0 0.0
2014-Aug-24 09:33N 69°39' E 018°57'0 0.0
2014-Aug-24 08:30N 69°39' E 018°57'0 0.0
2014-Aug-24 07:33N 69°39' E 018°57'0 0.0
2014-Aug-24 06:30N 69°39' E 018°57'0 0.0
2014-Aug-24 05:33N 69°39' E 018°57'0 0.0
2014-Aug-24 04:33N 69°39' E 018°57'0 0.0
2014-Aug-24 03:33N 69°39' E 018°57'0 0.0
2014-Aug-24 02:33N 69°39' E 018°57'0 0.0
2014-Aug-24 01:33N 69°39' E 018°57'0 0.0
2014-Aug-24 00:30N 69°39' E 018°57'0 0.0
2014-Aug-23 23:33N 69°39' E 018°57'0 0.0
2014-Aug-23 22:30N 69°39' E 018°57'0 0.0
2014-Aug-23 21:30N 69°39' E 018°57'0 0.0
2014-Aug-23 20:30N 69°39' E 018°57'0 0.0
2014-Aug-23 19:33N 69°39' E 018°57'0 0.0
2014-Aug-23 03:30N 69°39' E 018°57'0 0.0
2014-Aug-23 02:33N 69°39' E 018°57'0 0.0
2014-Aug-23 01:33N 69°39' E 018°57'0 0.0
2014-Aug-23 00:32N 69°39' E 018°57'0 0.0
2014-Aug-22 23:32N 69°39' E 018°57'0 0.0
2014-Aug-22 22:32N 69°39' E 018°57'0 0.0
2014-Aug-22 21:32N 69°39' E 018°57'7 1.4
2014-Aug-22 16:27N 69°45' E 019°07'14 6.7
2014-Aug-22 14:16N 69°33' E 018°43'7 9.7
2014-Aug-22 13:31N 69°39' E 018°57'0 0.0
2014-Aug-22 12:28N 69°39' E 018°57'0 0.0
2014-Aug-22 11:31N 69°39' E 018°57'0 0.0
2014-Aug-22 10:31N 69°39' E 018°57'0 0.0
2014-Aug-22 09:31N 69°39' E 018°57'0 0.0
2014-Aug-22 08:25N 69°39' E 018°57'0 0.0
2014-Aug-22 07:31N 69°39' E 018°57'  

Dump ship's entire track history